createdAt,value
2023-03-16T00:02:10.537Z,-1.30
2023-03-16T00:04:40.323Z,-1.40
2023-03-16T00:07:09.658Z,-1.40
2023-03-16T00:09:40.974Z,-1.40
2023-03-16T00:12:15.669Z,-1.40
2023-03-16T00:14:44.567Z,-1.50
2023-03-16T00:17:18.732Z,-1.50
2023-03-16T00:19:54.906Z,-1.50
2023-03-16T00:22:24.563Z,-1.60
2023-03-16T00:24:52.659Z,-1.60
2023-03-16T00:27:22.629Z,-1.60
2023-03-16T00:29:56.014Z,-1.70
2023-03-16T00:32:28.783Z,-1.70
2023-03-16T00:34:56.122Z,-1.80
2023-03-16T00:37:23.973Z,-1.80
2023-03-16T00:39:51.634Z,-1.90
2023-03-16T00:42:19.913Z,-1.90
2023-03-16T00:44:46.910Z,-1.90
2023-03-16T00:47:17.050Z,-1.90
2023-03-16T00:49:44.672Z,-1.90
2023-03-16T00:52:15.997Z,-1.90
2023-03-16T00:54:44.372Z,-2.00
2023-03-16T00:57:18.716Z,-2.00
2023-03-16T00:59:46.621Z,-2.10
2023-03-16T01:02:14.715Z,-2.10
2023-03-16T01:04:41.983Z,-2.10
2023-03-16T01:07:12.321Z,-2.10
2023-03-16T01:09:42.546Z,-2.10
2023-03-16T01:12:14.973Z,-2.10
2023-03-16T01:14:42.782Z,-2.10
2023-03-16T01:17:10.202Z,-2.20
2023-03-16T01:19:37.890Z,-2.30
2023-03-16T01:22:09.840Z,-2.30
2023-03-16T01:24:38.187Z,-2.30
2023-03-16T01:27:05.866Z,-2.30
2023-03-16T01:29:33.211Z,-2.30
2023-03-16T01:32:01.293Z,-2.30
2023-03-16T01:34:28.568Z,-2.40
2023-03-16T01:36:55.731Z,-2.40
2023-03-16T01:39:22.607Z,-2.40
2023-03-16T01:41:49.539Z,-2.40
2023-03-16T01:44:28.180Z,-2.40
2023-03-16T01:46:54.956Z,-2.50
2023-03-16T01:49:29.684Z,-2.50
2023-03-16T01:52:07.217Z,-2.50
2023-03-16T01:54:42.640Z,-2.50
2023-03-16T01:57:12.080Z,-2.40
2023-03-16T01:59:44.953Z,-2.50
2023-03-16T02:02:13.806Z,-2.50
2023-03-16T02:05:08.017Z,-2.50
2023-03-16T02:07:40.135Z,-2.50
2023-03-16T02:10:08.765Z,-2.50
2023-03-16T02:12:36.257Z,-2.60
2023-03-16T02:15:03.315Z,-2.60
2023-03-16T02:17:31.842Z,-2.60
2023-03-16T02:20:01.650Z,-2.60
2023-03-16T02:22:28.694Z,-2.60
2023-03-16T02:24:55.513Z,-2.60
2023-03-16T02:27:37.444Z,-2.50
2023-03-16T02:30:06.748Z,-2.60
2023-03-16T02:32:34.650Z,-2.60
2023-03-16T02:35:02.584Z,-2.60
2023-03-16T02:37:29.971Z,-2.60
2023-03-16T02:39:56.749Z,-2.60
2023-03-16T02:42:26.612Z,-2.50
2023-03-16T02:44:58.642Z,-2.50
2023-03-16T02:47:41.968Z,-2.50
2023-03-16T02:50:12.401Z,-2.50
2023-03-16T02:52:39.975Z,-2.60
2023-03-16T02:55:07.986Z,-2.60
2023-03-16T02:57:35.189Z,-2.50
2023-03-16T03:00:02.058Z,-2.50
2023-03-16T03:02:28.858Z,-2.50
2023-03-16T03:04:55.688Z,-2.50
2023-03-16T03:07:22.476Z,-2.50
2023-03-16T03:09:49.322Z,-2.60
2023-03-16T03:12:16.133Z,-2.60
2023-03-16T03:14:44.249Z,-2.60
2023-03-16T03:17:13.226Z,-2.70
2023-03-16T03:19:40.043Z,-2.70
2023-03-16T03:22:06.916Z,-2.70
2023-03-16T03:24:34.700Z,-2.70
2023-03-16T03:27:05.712Z,-2.70
2023-03-16T03:29:36.109Z,-2.70
2023-03-16T03:32:04.642Z,-2.70
2023-03-16T03:34:32.031Z,-2.70
2023-03-16T03:36:59.183Z,-2.80
2023-03-16T03:39:26.221Z,-2.80
2023-03-16T03:41:54.615Z,-2.80
2023-03-16T03:44:22.529Z,-2.90
2023-03-16T03:46:49.985Z,-2.90
2023-03-16T03:49:17.085Z,-2.90
2023-03-16T03:51:44.503Z,-2.90
2023-03-16T03:54:11.380Z,-3.00
2023-03-16T03:56:38.325Z,-3.00
2023-03-16T03:59:05.118Z,-3.00
2023-03-16T04:01:31.975Z,-3.00
2023-03-16T04:03:58.756Z,-3.00
2023-03-16T04:06:25.577Z,-3.00
2023-03-16T04:08:54.286Z,-3.00
2023-03-16T04:11:21.831Z,-3.00
2023-03-16T04:13:50.985Z,-3.00
2023-03-16T04:16:17.939Z,-3.10
2023-03-16T04:18:46.070Z,-3.10
2023-03-16T04:21:17.469Z,-3.10
2023-03-16T04:23:44.716Z,-3.10
2023-03-16T04:26:11.633Z,-3.10
2023-03-16T04:28:38.929Z,-3.20
2023-03-16T04:31:08.071Z,-3.20
2023-03-16T04:33:36.304Z,-3.20
2023-03-16T04:36:06.278Z,-3.10
2023-03-16T04:38:34.270Z,-3.10
2023-03-16T04:41:02.745Z,-3.20
2023-03-16T04:43:30.253Z,-3.20
2023-03-16T04:45:57.013Z,-3.10
2023-03-16T04:48:25.679Z,-3.10
2023-03-16T04:50:52.396Z,-3.10
2023-03-16T04:53:19.176Z,-3.20
2023-03-16T04:55:47.084Z,-3.20
2023-03-16T04:58:13.901Z,-3.20
2023-03-16T05:00:41.550Z,-3.20
2023-03-16T05:03:12.800Z,-3.20
2023-03-16T05:05:40.040Z,-3.20
2023-03-16T05:08:07.348Z,-3.20
2023-03-16T05:10:34.610Z,-3.20
2023-03-16T05:13:01.417Z,-3.20
2023-03-16T05:15:28.302Z,-3.20
2023-03-16T05:17:58.269Z,-3.10
2023-03-16T05:20:25.538Z,-3.20
2023-03-16T05:22:52.448Z,-3.20
2023-03-16T05:25:20.652Z,-3.20
2023-03-16T05:27:50.488Z,-3.30
2023-03-16T05:30:18.461Z,-3.20
2023-03-16T05:32:45.655Z,-3.20
2023-03-16T05:35:13.675Z,-3.20
2023-03-16T05:37:43.886Z,-3.20
2023-03-16T05:40:19.454Z,-3.20
2023-03-16T05:42:48.130Z,-3.20
2023-03-16T05:45:16.807Z,-3.20
2023-03-16T05:47:44.170Z,-3.20
2023-03-16T05:50:12.994Z,-3.10
2023-03-16T05:52:40.101Z,-3.10
2023-03-16T05:55:09.472Z,-3.10
2023-03-16T05:57:36.451Z,-3.10
2023-03-16T06:00:16.572Z,-3.10
2023-03-16T06:02:46.905Z,-3.10
2023-03-16T06:05:14.123Z,-3.10
2023-03-16T06:07:41.761Z,-3.00
2023-03-16T06:10:09.724Z,-3.00
2023-03-16T06:12:36.592Z,-2.90
2023-03-16T06:15:07.266Z,-2.80
2023-03-16T06:17:35.532Z,-2.70
2023-03-16T06:20:03.574Z,-2.60
2023-03-16T06:22:30.712Z,-2.60
2023-03-16T06:24:57.525Z,-2.50
2023-03-16T06:27:26.485Z,-2.40
2023-03-16T06:29:53.399Z,-2.30
2023-03-16T06:32:20.328Z,-2.20
2023-03-16T06:34:47.769Z,-1.80
2023-03-16T06:37:14.738Z,-0.70
2023-03-16T06:39:41.532Z,0.30
2023-03-16T06:42:08.416Z,1.30
2023-03-16T06:44:35.181Z,2.30
2023-03-16T06:47:02.053Z,3.20
2023-03-16T06:49:28.988Z,4.10
2023-03-16T06:51:56.588Z,4.90
2023-03-16T06:54:23.313Z,5.50
2023-03-16T06:56:50.151Z,6.20
2023-03-16T06:59:16.921Z,6.70
2023-03-16T07:01:44.941Z,7.10
2023-03-16T07:04:12.674Z,7.10
2023-03-16T07:06:39.646Z,7.00
2023-03-16T07:09:06.426Z,7.60
2023-03-16T07:11:33.348Z,8.20
2023-03-16T07:14:00.231Z,8.50
2023-03-16T07:16:27.356Z,8.80
2023-03-16T07:18:54.465Z,9.20
2023-03-16T07:21:21.705Z,9.30
2023-03-16T07:23:48.707Z,9.80
2023-03-16T07:26:15.533Z,9.80
2023-03-16T07:28:42.453Z,10.20
2023-03-16T07:31:09.477Z,10.30
2023-03-16T07:33:36.567Z,10.60
2023-03-16T07:36:04.534Z,10.90
2023-03-16T07:38:32.676Z,11.10
2023-03-16T07:41:02.193Z,11.40
2023-03-16T07:43:29.437Z,11.70
2023-03-16T07:45:56.287Z,11.90
2023-03-16T07:48:23.302Z,12.30
2023-03-16T07:50:50.531Z,12.70
2023-03-16T07:53:17.868Z,12.60
2023-03-16T07:55:45.012Z,13.00
2023-03-16T07:58:12.565Z,13.30
2023-03-16T08:00:40.094Z,12.50
2023-03-16T08:03:07.192Z,12.20
2023-03-16T08:05:34.075Z,11.70
2023-03-16T08:08:01.774Z,11.80
2023-03-16T08:10:29.472Z,12.30
2023-03-16T08:12:56.515Z,13.10
2023-03-16T08:15:24.973Z,13.40
2023-03-16T08:17:52.527Z,14.00
2023-03-16T08:20:19.771Z,14.20
2023-03-16T08:22:46.888Z,14.50
2023-03-16T08:25:14.684Z,14.40
2023-03-16T08:27:42.779Z,15.10
2023-03-16T08:30:11.601Z,15.40
2023-03-16T08:32:42.416Z,15.50
2023-03-16T08:35:13.474Z,16.00
2023-03-16T08:37:41.496Z,16.40
2023-03-16T08:40:10.866Z,16.20
2023-03-16T08:42:41.574Z,15.80
2023-03-16T08:45:14.438Z,15.40
2023-03-16T08:47:41.431Z,14.90
2023-03-16T08:50:09.913Z,14.80
2023-03-16T08:52:37.274Z,14.60
2023-03-16T08:55:05.737Z,14.20
2023-03-16T08:57:33.994Z,14.00
2023-03-16T09:00:01.408Z,13.70
2023-03-16T09:02:28.338Z,13.10
2023-03-16T09:04:56.194Z,12.70
2023-03-16T09:07:23.293Z,12.20
2023-03-16T09:09:50.808Z,12.80
2023-03-16T09:12:17.875Z,13.20
2023-03-16T09:14:45.963Z,14.30
2023-03-16T09:17:12.905Z,15.40
2023-03-16T09:19:51.178Z,15.90
2023-03-16T09:22:19.864Z,16.60
2023-03-16T09:24:48.430Z,16.80
2023-03-16T09:27:16.189Z,16.70
2023-03-16T09:29:43.546Z,16.20
2023-03-16T09:32:11.096Z,16.50
2023-03-16T09:34:38.004Z,16.80
2023-03-16T09:37:05.252Z,17.30
2023-03-16T09:39:32.084Z,17.60
2023-03-16T09:42:18.255Z,18.20
2023-03-16T09:45:13.425Z,18.20
2023-03-16T09:47:41.861Z,18.00
2023-03-16T09:50:16.615Z,18.20
2023-03-16T09:53:09.073Z,18.40
2023-03-16T09:55:38.908Z,18.60
2023-03-16T09:58:20.376Z,18.80
2023-03-16T10:01:05.880Z,19.30
2023-03-16T10:03:59.102Z,19.90
2023-03-16T10:06:26.830Z,19.90
2023-03-16T10:09:00.123Z,20.10
2023-03-16T10:11:33.164Z,20.40
2023-03-16T10:14:41.062Z,20.90
2023-03-16T10:17:13.617Z,20.70
2023-03-16T10:19:58.052Z,21.20
2023-03-16T10:22:26.615Z,21.20
2023-03-16T10:25:24.035Z,21.50
2023-03-16T10:27:51.799Z,21.70
2023-03-16T10:30:33.928Z,21.80
2023-03-16T10:33:13.623Z,22.30
2023-03-16T10:35:49.661Z,22.20
2023-03-16T10:38:49.439Z,22.40
2023-03-16T10:41:21.424Z,22.30
2023-03-16T10:43:58.633Z,22.00
2023-03-16T10:46:27.777Z,22.10
2023-03-16T10:49:00.821Z,22.30
2023-03-16T10:51:46.630Z,22.70
2023-03-16T10:54:19.770Z,22.90
2023-03-16T10:56:46.502Z,22.90
2023-03-16T10:59:34.498Z,22.90
2023-03-16T11:02:17.245Z,22.80
2023-03-16T11:04:44.194Z,22.60
2023-03-16T11:07:20.736Z,22.50
2023-03-16T11:09:48.609Z,22.50
2023-03-16T11:12:21.584Z,21.90
2023-03-16T11:14:49.142Z,21.50
2023-03-16T11:17:36.577Z,21.70
2023-03-16T11:20:17.531Z,21.30
2023-03-16T11:22:47.129Z,21.00
2023-03-16T11:25:48.053Z,21.20
2023-03-16T11:28:35.508Z,20.80
2023-03-16T11:31:27.664Z,20.00
2023-03-16T11:33:57.469Z,20.10
2023-03-16T11:36:44.429Z,20.50
2023-03-16T11:39:43.505Z,21.00
2023-03-16T11:42:47.035Z,21.40
2023-03-16T11:45:32.632Z,21.10
2023-03-16T11:48:17.430Z,21.10
2023-03-16T11:50:50.066Z,21.30
2023-03-16T11:53:41.224Z,21.90
2023-03-16T11:56:26.051Z,21.30
2023-03-16T11:59:08.019Z,20.30
2023-03-16T12:02:07.291Z,19.20
2023-03-16T12:04:42.866Z,18.40
2023-03-16T12:07:20.440Z,18.10
2023-03-16T12:09:59.851Z,17.90
2023-03-16T12:12:35.516Z,17.60
2023-03-16T12:15:38.465Z,17.30
2023-03-16T12:18:17.470Z,17.30
2023-03-16T12:20:50.807Z,18.10
2023-03-16T12:23:43.370Z,18.30
2023-03-16T12:26:12.436Z,18.10
2023-03-16T12:28:42.113Z,17.60
2023-03-16T12:31:47.492Z,18.00
2023-03-16T12:35:02.208Z,18.90
2023-03-16T12:37:36.104Z,19.50
2023-03-16T12:40:09.154Z,20.00
2023-03-16T12:43:01.515Z,20.10
2023-03-16T12:45:37.380Z,20.00
2023-03-16T12:48:12.619Z,20.00
2023-03-16T12:50:55.113Z,19.10
2023-03-16T12:53:28.644Z,18.60
2023-03-16T12:55:57.215Z,17.50
2023-03-16T12:58:26.127Z,17.10
2023-03-16T13:00:59.518Z,17.30
2023-03-16T13:03:27.780Z,17.40
2023-03-16T13:05:58.823Z,17.80
2023-03-16T13:08:27.697Z,17.90
2023-03-16T13:11:06.899Z,17.90
2023-03-16T13:13:34.183Z,17.60
2023-03-16T13:16:09.427Z,17.10
2023-03-16T13:18:44.568Z,16.80
2023-03-16T13:21:21.494Z,16.00
2023-03-16T13:23:58.663Z,15.60
2023-03-16T13:26:38.107Z,15.50
2023-03-16T13:29:27.086Z,15.50
2023-03-16T13:31:57.845Z,15.50
2023-03-16T13:34:35.946Z,15.20
2023-03-16T13:37:02.848Z,14.80
2023-03-16T13:39:31.615Z,14.10
2023-03-16T13:42:16.883Z,13.90
2023-03-16T13:44:44.572Z,13.80
2023-03-16T13:47:20.258Z,13.70
2023-03-16T13:49:51.076Z,13.60
2023-03-16T13:52:27.472Z,13.70
2023-03-16T13:54:56.359Z,13.50
2023-03-16T13:57:26.920Z,13.20
2023-03-16T14:00:21.095Z,13.00
2023-03-16T14:02:56.353Z,12.90
2023-03-16T14:05:31.137Z,12.70
2023-03-16T14:08:00.638Z,12.60
2023-03-16T14:10:33.216Z,12.50
2023-03-16T14:13:29.562Z,12.40
2023-03-16T14:16:04.502Z,12.40
2023-03-16T14:18:34.679Z,12.40
2023-03-16T14:21:08.047Z,12.30
2023-03-16T14:23:40.608Z,12.20
2023-03-16T14:26:16.056Z,11.90
2023-03-16T14:28:54.037Z,11.50
2023-03-16T14:31:21.313Z,11.30
2023-03-16T14:33:48.153Z,11.00
2023-03-16T14:36:19.691Z,11.00
2023-03-16T14:38:48.590Z,11.10
2023-03-16T14:41:26.355Z,11.20
2023-03-16T14:43:59.562Z,11.00
2023-03-16T14:46:33.049Z,11.00
2023-03-16T14:49:05.218Z,11.00
2023-03-16T14:51:39.890Z,11.00
2023-03-16T14:54:13.816Z,10.80
2023-03-16T14:56:42.449Z,10.70
2023-03-16T14:59:09.967Z,10.60
2023-03-16T15:01:37.961Z,10.40
2023-03-16T15:04:05.939Z,10.30
2023-03-16T15:06:34.241Z,10.20
2023-03-16T15:09:01.653Z,10.30
2023-03-16T15:11:29.371Z,10.20
2023-03-16T15:14:14.319Z,10.20
2023-03-16T15:16:42.481Z,10.20
2023-03-16T15:19:10.020Z,10.10
2023-03-16T15:21:36.820Z,10.10
2023-03-16T15:24:12.447Z,10.00
2023-03-16T15:26:39.215Z,10.00
2023-03-16T15:29:06.646Z,10.10
2023-03-16T15:31:33.519Z,10.10
2023-03-16T15:34:00.490Z,10.00
2023-03-16T15:36:27.332Z,9.90
2023-03-16T15:38:55.495Z,9.70
2023-03-16T15:41:26.940Z,9.50
2023-03-16T15:44:00.785Z,9.40
2023-03-16T15:46:28.387Z,9.30
2023-03-16T15:48:55.444Z,9.10
2023-03-16T15:51:29.152Z,8.90
2023-03-16T15:54:04.867Z,8.70
2023-03-16T15:56:44.183Z,8.50
2023-03-16T15:59:18.265Z,8.30
2023-03-16T16:01:47.851Z,8.20
2023-03-16T16:04:19.502Z,8.10
2023-03-16T16:06:47.932Z,7.90
2023-03-16T16:09:15.730Z,7.90
2023-03-16T16:11:42.549Z,7.80
2023-03-16T16:14:17.290Z,7.70
2023-03-16T16:16:46.141Z,7.60
2023-03-16T16:19:14.321Z,7.60
2023-03-16T16:21:41.515Z,7.50
2023-03-16T16:24:09.406Z,7.50
2023-03-16T16:26:50.863Z,7.50
2023-03-16T16:29:32.035Z,7.40
2023-03-16T16:31:59.104Z,7.30
2023-03-16T16:34:27.021Z,7.20
2023-03-16T16:36:54.978Z,7.20
2023-03-16T16:39:22.115Z,7.10
2023-03-16T16:41:51.377Z,7.00
2023-03-16T16:44:24.173Z,7.00
2023-03-16T16:46:52.054Z,6.90
2023-03-16T16:49:20.069Z,6.80
2023-03-16T16:51:47.563Z,6.70
2023-03-16T16:54:32.608Z,6.60
2023-03-16T16:57:00.722Z,6.60
2023-03-16T16:59:37.249Z,6.50
2023-03-16T17:02:27.754Z,6.40
2023-03-16T17:04:54.593Z,6.40
2023-03-16T17:07:21.710Z,6.30
2023-03-16T17:09:48.561Z,6.20
2023-03-16T17:12:21.801Z,6.10
2023-03-16T17:14:55.806Z,6.00
2023-03-16T17:17:22.592Z,6.00
2023-03-16T17:19:49.439Z,5.90
2023-03-16T17:22:25.731Z,5.90
2023-03-16T17:24:53.364Z,5.90
2023-03-16T17:27:26.181Z,5.90
2023-03-16T17:29:53.877Z,5.90
2023-03-16T17:32:22.742Z,5.90
2023-03-16T17:34:50.930Z,5.90
2023-03-16T17:37:20.194Z,5.90
2023-03-16T17:39:47.670Z,5.90
2023-03-16T17:42:19.584Z,5.90
2023-03-16T17:44:51.796Z,5.90
2023-03-16T17:47:24.014Z,5.90
2023-03-16T17:49:51.897Z,5.90
2023-03-16T17:52:23.267Z,5.90
2023-03-16T17:54:51.989Z,5.90
2023-03-16T17:57:37.050Z,5.90
2023-03-16T18:00:18.579Z,5.90
2023-03-16T18:02:45.527Z,5.90
2023-03-16T18:08:46.737Z,5.90
2023-03-16T18:11:21.473Z,5.90
2023-03-16T18:13:50.293Z,5.90
2023-03-16T18:16:23.297Z,5.90
2023-03-16T18:18:51.896Z,5.90
2023-03-16T18:21:21.783Z,5.90
2023-03-16T18:23:49.385Z,5.90
2023-03-16T18:26:16.361Z,5.90
2023-03-16T18:28:43.820Z,5.80
2023-03-16T18:31:23.715Z,5.80
2023-03-16T18:34:00.689Z,5.80
2023-03-16T18:36:31.347Z,5.80
2023-03-16T18:39:01.989Z,5.80
2023-03-16T18:41:33.520Z,5.80
2023-03-16T18:44:14.024Z,5.80
2023-03-16T18:46:40.973Z,5.70
2023-03-16T18:49:29.418Z,5.70
2023-03-16T18:51:56.248Z,5.70
2023-03-16T18:54:31.851Z,5.70
2023-03-16T18:56:58.970Z,5.70
2023-03-16T18:59:26.987Z,5.70
2023-03-16T19:01:53.923Z,5.70
2023-03-16T19:04:32.853Z,5.70
2023-03-16T19:06:59.829Z,5.70
2023-03-16T19:09:31.674Z,5.60
2023-03-16T19:11:58.908Z,5.70
2023-03-16T19:14:33.064Z,5.70
2023-03-16T19:17:00.228Z,5.70
2023-03-16T19:19:27.318Z,5.70
2023-03-16T19:22:02.415Z,5.70
2023-03-16T19:24:35.157Z,5.70
2023-03-16T19:27:02.122Z,5.70
2023-03-16T19:29:34.438Z,5.80
2023-03-16T19:32:01.812Z,5.80
2023-03-16T19:34:29.364Z,5.70
2023-03-16T19:36:56.294Z,5.70
2023-03-16T19:39:23.078Z,5.70
2023-03-16T19:41:56.459Z,5.70
2023-03-16T19:44:25.719Z,5.70
2023-03-16T19:46:52.937Z,5.70
2023-03-16T19:49:22.696Z,5.80
2023-03-16T19:51:51.520Z,5.70
2023-03-16T19:54:22.675Z,5.70
2023-03-16T19:56:50.522Z,5.70
2023-03-16T19:59:18.052Z,5.80
2023-03-16T20:01:45.109Z,5.80
2023-03-16T20:04:20.236Z,5.80
2023-03-16T20:06:49.843Z,5.80
2023-03-16T20:09:17.575Z,5.80
2023-03-16T20:11:44.905Z,5.80
2023-03-16T20:14:26.966Z,5.90
2023-03-16T20:16:53.867Z,5.90
2023-03-16T20:19:22.197Z,5.80
2023-03-16T20:21:49.283Z,5.80
2023-03-16T20:24:19.115Z,5.80
2023-03-16T20:26:48.406Z,5.80
2023-03-16T20:29:34.200Z,5.80
2023-03-16T20:32:02.463Z,5.70
2023-03-16T20:34:31.402Z,5.70
2023-03-16T20:36:58.412Z,5.70
2023-03-16T20:39:25.553Z,5.70
2023-03-16T20:41:52.563Z,5.70
2023-03-16T20:44:21.314Z,5.70
2023-03-16T20:46:48.108Z,5.70
2023-03-16T20:49:25.333Z,5.70
2023-03-16T20:51:53.213Z,5.60
2023-03-16T20:54:20.749Z,5.60
2023-03-16T20:56:48.121Z,5.60
2023-03-16T20:59:21.752Z,5.60
2023-03-16T21:01:49.734Z,5.60
2023-03-16T21:04:22.405Z,5.50
2023-03-16T21:06:50.890Z,5.50
2023-03-16T21:09:19.187Z,5.50
2023-03-16T21:11:47.299Z,5.50
2023-03-16T21:14:20.841Z,5.50
2023-03-16T21:16:48.210Z,5.60
2023-03-16T21:19:21.012Z,5.50
2023-03-16T21:21:47.863Z,5.50
2023-03-16T21:24:14.791Z,5.60
2023-03-16T21:26:43.582Z,5.60
2023-03-16T21:29:18.090Z,5.60
2023-03-16T21:31:44.908Z,5.60
2023-03-16T21:34:28.425Z,5.60
2023-03-16T21:36:55.166Z,5.60
2023-03-16T21:39:24.969Z,5.60
2023-03-16T21:41:51.970Z,5.60
2023-03-16T21:44:19.543Z,5.60
2023-03-16T21:46:47.345Z,5.60
2023-03-16T21:49:15.656Z,5.60
2023-03-16T21:51:43.115Z,5.60
2023-03-16T21:54:14.437Z,5.60
2023-03-16T21:56:42.283Z,5.60
2023-03-16T21:59:09.901Z,5.60
2023-03-16T22:01:50.589Z,5.50
2023-03-16T22:04:25.400Z,5.50
2023-03-16T22:06:52.418Z,5.50
2023-03-16T22:09:22.513Z,5.50
2023-03-16T22:11:49.883Z,5.50
2023-03-16T22:14:16.722Z,5.40
2023-03-16T22:16:43.751Z,5.40
2023-03-16T22:19:14.472Z,5.40
2023-03-16T22:21:43.713Z,5.40
2023-03-16T22:24:23.477Z,5.40
2023-03-16T22:26:50.760Z,5.40
2023-03-16T22:29:28.216Z,5.40
2023-03-16T22:31:59.424Z,5.40
2023-03-16T22:34:51.728Z,5.40
2023-03-16T22:37:22.905Z,5.40
2023-03-16T22:39:50.330Z,5.40
2023-03-16T22:42:28.384Z,5.40
2023-03-16T22:44:56.474Z,5.40
2023-03-16T22:47:32.200Z,5.40
2023-03-16T22:49:59.229Z,5.40
2023-03-16T22:52:30.210Z,5.30
2023-03-16T22:54:59.747Z,5.30
2023-03-16T22:57:26.611Z,5.30
2023-03-16T22:59:53.414Z,5.20
2023-03-16T23:02:24.263Z,5.20
2023-03-16T23:04:51.168Z,5.20
2023-03-16T23:07:18.191Z,5.20
2023-03-16T23:09:45.638Z,5.20
2023-03-16T23:12:19.719Z,5.10
2023-03-16T23:14:46.689Z,5.10
2023-03-16T23:17:24.887Z,5.10
2023-03-16T23:19:51.952Z,5.00
2023-03-16T23:22:18.716Z,5.00
2023-03-16T23:24:45.778Z,5.10
2023-03-16T23:27:18.561Z,5.00
2023-03-16T23:29:46.011Z,5.10
2023-03-16T23:32:14.708Z,5.00
2023-03-16T23:34:41.471Z,5.00
2023-03-16T23:37:08.557Z,5.10
2023-03-16T23:39:35.328Z,5.10
2023-03-16T23:42:02.312Z,5.10
2023-03-16T23:44:30.326Z,5.10
2023-03-16T23:46:58.574Z,5.10
2023-03-16T23:49:32.547Z,5.10
2023-03-16T23:52:01.600Z,5.10
2023-03-16T23:54:30.937Z,5.10
2023-03-16T23:56:57.926Z,5.10
2023-03-16T23:59:25.706Z,5.10
